Flight Track Log - Related Links

Times and Time Zones

All times are in EDT time to prevent confusion due to time zone crossing. See the CSH9224 flight status page for this flight to view local times or setup timezone preferences in your user account.


Time Position Orientation Groundspeed Altitude Reporting Facility
EDT Latitude Longitude Course Direction KTS MPH feet Rate Location/Type
Thu 10:09:00 AM 38.0114 80.8232 38° Northeast  Level Estimated
Thu 10:10:00 AM 38.0994 80.9116 38° Northeast  Level Estimated
Thu 10:11:00 AM 38.1794 80.9921 38° Northeast  Level Estimated
Thu 10:12:00 AM 38.2594 81.0728 38° Northeast  Level Estimated
Thu 10:13:00 AM 38.3392 81.1536 38° Northeast  Level Estimated
Thu 10:14:00 AM 38.4191 81.2347 38° Northeast  Level Estimated
Thu 10:15:00 AM 38.4989 81.3159 39° Northeast  Level Estimated
Thu 10:16:00 AM 38.5786 81.3973 39° Northeast  Level Estimated
Thu 10:17:00 AM 38.6582 81.4789 39° Northeast  Level Estimated
Thu 10:18:00 AM 38.7378 81.5607 39° Northeast  Level Estimated
Thu 10:19:00 AM 38.8174 81.6426 39° Northeast  Level Estimated
Thu 10:20:00 AM 38.8969 81.7248 39° Northeast  Level Estimated
Thu 10:21:00 AM 38.9763 81.8071 39° Northeast  Level Estimated
Thu 10:22:00 AM 39.0556 81.8896 39° Northeast  Level Estimated
Thu 10:23:00 AM 39.1350 81.9723 39° Northeast  Level Estimated
Thu 10:24:00 AM 39.2142 82.0552 39° Northeast  Level Estimated
Thu 10:25:00 AM 39.2934 82.1383 39° Northeast  Level Estimated
Thu 10:26:00 AM 39.3725 82.2215 39° Northeast  Level Estimated
Thu 10:27:00 AM 39.4516 82.3049 39° Northeast  Level Estimated
Thu 10:28:00 AM 39.5306 82.3886 39° Northeast  Level Estimated
Thu 10:29:00 AM 39.6096 82.4724 39° Northeast  Level Estimated
Thu 10:30:00 AM 39.6885 82.5564 39° Northeast  Level Estimated
Thu 10:31:00 AM 39.7673 82.6406 39° Northeast  Level Estimated
Thu 10:32:00 AM 39.8461 82.7250 39° Northeast  Level Estimated
Thu 10:33:00 AM 39.9248 82.8096 39° Northeast  Level Estimated
Thu 10:34:00 AM 40.0035 82.8944 40° Northeast  Level Estimated
Thu 10:35:00 AM 40.0821 82.9794 40° Northeast  Level Estimated
Thu 10:36:00 AM 40.1606 83.0646 40° Northeast  Level Estimated
Thu 10:37:00 AM 40.2390 83.1499 40° Northeast  Level Estimated
Thu 10:38:00 AM 40.3174 83.2355 40° Northeast  Level Estimated
Thu 10:39:00 AM 40.3958 83.3213 40° Northeast  Level Estimated
Thu 10:40:00 AM 40.4740 83.4072 40° Northeast  Level Estimated
Thu 10:41:00 AM 40.5523 83.4934 40° Northeast  Level Estimated
Thu 10:42:00 AM 40.6304 83.5798 40° Northeast  Level Estimated
Thu 10:43:00 AM 40.7085 83.6664 40° Northeast  Level Estimated
Thu 10:44:00 AM 40.7865 83.7532 40° Northeast  Level Estimated
Thu 10:45:00 AM 40.8645 83.8401 40° Northeast  Level Estimated
Thu 10:46:00 AM 40.9423 83.9273 40° Northeast  Level Estimated
Thu 10:47:00 AM 41.0202 84.0147 40° Northeast  Level Estimated
Thu 10:48:00 AM 41.0979 84.1023 40° Northeast  Level Estimated
Thu 10:49:00 AM 41.1756 84.1901 40° Northeast  Level Estimated
Thu 10:50:00 AM 41.2532 84.2782 40° Northeast  Level Estimated
Thu 10:51:00 AM 41.3308 84.3664 40° Northeast  Level Estimated
Thu 10:52:00 AM 41.4083 84.4548 41° Northeast  Level Estimated
Thu 10:53:00 AM 41.4857 84.5435 41° Northeast  Level Estimated
Thu 10:54:00 AM 41.5630 84.6323 41° Northeast  Level Estimated
Thu 10:55:00 AM 41.6403 84.7214 41° Northeast  Level Estimated
Thu 10:56:00 AM 41.7175 84.8107 41° Northeast  Level Estimated
Thu 10:57:00 AM 41.7947 84.9002 41° Northeast  Level Estimated
Thu 10:58:00 AM 41.8717 84.9899 41° Northeast  Level Estimated
Thu 10:59:00 AM 41.9487 85.0799 41° Northeast  Level Estimated
Thu 11:00:00 AM 42.0257 85.1700 41° Northeast  Level Estimated
Thu 11:01:00 AM 42.1025 85.2604 41° Northeast  Level Estimated
Thu 11:02:00 AM 42.1793 85.3510 41° Northeast  Level Estimated
Thu 11:03:00 AM 42.2560 85.4418 41° Northeast  Level Estimated
Thu 11:04:00 AM 42.3327 85.5328 41° Northeast  Level Estimated
Thu 11:05:00 AM 42.4093 85.6241 41° Northeast  Level Estimated
Thu 11:06:00 AM 42.4858 85.7156 41° Northeast  Level Estimated
Thu 11:07:00 AM 42.5622 85.8073 41° Northeast  Level Estimated
Thu 11:08:00 AM 42.6386 85.8992 42° Northeast  Level Estimated
Thu 11:09:00 AM 42.7148 85.9913 42° Northeast  Level Estimated
Thu 11:10:00 AM 42.7910 86.0837 42° Northeast  Level Estimated
Thu 11:11:00 AM 42.8672 86.1763 42° Northeast  Level Estimated
Thu 11:12:00 AM 42.9432 86.2691 42° Northeast  Level Estimated
Thu 11:13:00 AM 43.0144 86.3562 42° Northeast  Level Estimated
Thu 11:14:00 AM 43.0855 86.4436 42° Northeast  Level Estimated
Thu 11:15:00 AM 43.1565 86.5311 42° Northeast  Level Estimated
Thu 11:16:00 AM 43.2274 86.6188 42° Northeast  Level Estimated
Thu 11:17:00 AM 43.2983 86.7067 42° Northeast  Level Estimated
Thu 11:18:00 AM 43.3691 86.7949 42° Northeast  Level Estimated
Thu 11:19:00 AM 43.4398 86.8832 42° Northeast  Level Estimated
Thu 11:20:00 AM 43.5105 86.9718 42° Northeast  Level Estimated
Thu 11:21:00 AM 43.5811 87.0605 42° Northeast  Level Estimated
Thu 11:22:00 AM 43.6516 87.1495 42° Northeast  Level Estimated
Thu 11:23:00 AM 43.7221 87.2386 42° Northeast  Level Estimated
Thu 11:24:00 AM 43.7925 87.3280 42° Northeast  Level Estimated
Thu 11:25:00 AM 43.8628 87.4176 43° Northeast  Level Estimated
Thu 11:26:00 AM 43.9071 87.4742 43° Northeast  Level Estimated
Thu 11:27:00 AM 43.9071 87.4742 144° Southeast  Level Estimated
Thu 11:28:00 AM 43.9071 87.4742 144° Southeast  Level Estimated
Thu 11:29:00 AM 43.9071 87.4742 144° Southeast  Level Estimated
Thu 11:30:00 AM 43.9071 87.4742 144° Southeast  Level Estimated
Thu 11:31:00 AM 43.9071 87.4742 144° Southeast  Level Estimated
Thu 11:32:00 AM 43.9071 87.4742 144° Southeast  Level Estimated
Thu 11:33:00 AM 43.9071 87.4742 144° Southeast  Level Estimated
Thu 11:34:00 AM 43.9071 87.4742 144° Southeast  Level Estimated
Thu 11:35:00 AM 43.9071 87.4742 144° Southeast  Level Estimated
Thu 11:36:00 AM 43.9071 87.4742 144° Southeast  Level Estimated
Thu 11:37:00 AM 43.9071 87.4742 144° Southeast  Level Estimated
Thu 11:38:00 AM 43.9071 87.4742 144° Southeast  Level Estimated
Thu 11:39:00 AM 43.9071 87.4742 144° Southeast  Level Estimated
Thu 11:40:00 AM 43.9071 87.4742 144° Southeast  Level Estimated

Login

Don't have an account? Register now (free) for customized features, flight alerts, and more!